Time;durP1;ratioP1;P1;durP2;ratioP2;P2;SDS_P1;SDS_P2;PMS_P1;PMS_P2;Temp;Humidity;BMP_temperature;BMP_pressure;BME280_temperature;BME280_humidity;BME280_pressure;Samples;Min_cycle;Max_cycle;Signal;HPM_P1;HPM_P2
2022/05/02 00:00:27;;;;;;;4.60;3.42;;;12.90;59.10;;;;;;2592233;53;21034;-77
2022/05/02 00:02:54;;;;;;;4.47;2.87;;;12.90;59.10;;;;;;2345441;57;21529;-76
2022/05/02 00:05:21;;;;;;;3.85;2.67;;;12.90;59.10;;;;;;2591811;53;21042;-78
2022/05/02 00:07:49;;;;;;;8.07;3.58;;;12.90;59.30;;;;;;2345791;57;21535;-77
2022/05/02 00:10:17;;;;;;;7.28;3.20;;;12.90;59.20;;;;;;2344695;57;21045;-77
2022/05/02 00:12:45;;;;;;;4.00;3.05;;;12.90;59.30;;;;;;2592685;53;21097;-76
2022/05/02 00:15:12;;;;;;;5.53;3.58;;;12.90;59.30;;;;;;2345033;57;21033;-77
2022/05/02 00:17:59;;;;;;;9.93;4.43;;;12.90;59.40;;;;;;2591884;53;21583;-77
2022/05/02 00:20:28;;;;;;;10.65;3.92;;;12.90;59.50;;;;;;2345993;57;21037;-77
2022/05/02 00:22:57;;;;;;;6.32;4.18;;;12.90;59.40;;;;;;2345593;57;21050;-77
2022/05/02 00:25:24;;;;;;;5.65;3.40;;;12.80;59.50;;;;;;2345653;57;21053;-77
2022/05/02 00:27:52;;;;;;;4.70;3.08;;;12.80;59.50;;;;;;2345419;57;21121;-77
2022/05/02 00:30:20;;;;;;;4.45;3.03;;;12.80;59.60;;;;;;2344961;57;21068;-76
2022/05/02 00:32:48;;;;;;;7.82;3.95;;;12.80;59.50;;;;;;2345349;57;21062;-77
2022/05/02 00:35:16;;;;;;;4.12;2.90;;;12.70;59.30;;;;;;2344905;57;21041;-77
2022/05/02 00:37:43;;;;;;;4.12;2.75;;;12.70;59.40;;;;;;2345661;57;21046;-77
2022/05/02 00:40:13;;;;;;;3.92;3.20;;;12.70;59.40;;;;;;2345450;57;21125;-77
2022/05/02 00:42:43;;;;;;;5.10;3.42;;;12.70;59.60;;;;;;2345289;57;21033;-76
2022/05/02 00:45:12;;;;;;;7.55;3.35;;;12.60;59.80;;;;;;2592210;53;21037;-76
2022/05/02 00:47:39;;;;;;;6.12;3.30;;;12.50;61.00;;;;;;2345228;57;21033;-77
2022/05/02 00:50:09;;;;;;;5.05;3.00;;;12.50;60.60;;;;;;2345327;57;21137;-77
2022/05/02 00:52:37;;;;;;;4.95;3.35;;;12.40;60.60;;;;;;2345407;57;21049;-76
2022/05/02 00:55:06;;;;;;;6.53;3.45;;;12.40;60.40;;;;;;2592321;53;21496;-77
2022/05/02 00:57:34;;;;;;;7.35;3.80;;;12.50;60.40;;;;;;2344369;57;21302;-77
2022/05/02 01:00:01;;;;;;;9.20;5.12;;;12.40;60.30;;;;;;2345641;57;21046;-77
2022/05/02 01:02:28;;;;;;;8.30;4.55;;;12.50;60.40;;;;;;2592224;53;21469;-77
2022/05/02 01:04:56;;;;;;;7.57;4.62;;;12.40;60.40;;;;;;2345610;57;21053;-77
2022/05/02 01:07:23;;;;;;;7.05;3.50;;;12.40;60.50;;;;;;2344621;57;21030;-77
2022/05/02 01:09:51;;;;;;;5.05;3.60;;;12.50;61.60;;;;;;2345446;57;21053;-77
2022/05/02 01:12:20;;;;;;;7.68;3.80;;;12.50;60.50;;;;;;2345318;57;21600;-77
2022/05/02 01:14:50;;;;;;;5.28;3.12;;;12.50;60.40;;;;;;2344885;57;21049;-77
2022/05/02 01:17:17;;;;;;;5.32;3.65;;;12.40;60.20;;;;;;2344795;57;21780;-77
2022/05/02 01:19:46;;;;;;;6.55;4.55;;;12.40;60.10;;;;;;2592213;52;21061;-76
2022/05/02 01:22:13;;;;;;;6.37;3.95;;;12.40;59.90;;;;;;2345231;57;21038;-76
2022/05/02 01:24:42;;;;;;;6.07;4.45;;;12.40;59.90;;;;;;2345419;57;21062;-76
2022/05/02 01:27:11;;;;;;;10.70;4.82;;;12.40;60.10;;;;;;2344755;57;21658;-77
2022/05/02 01:29:42;;;;;;;6.57;4.18;;;12.30;60.10;;;;;;2345333;57;21156;-77
2022/05/02 01:32:12;;;;;;;5.78;3.75;;;12.30;60.20;;;;;;2344566;57;21516;-77
2022/05/02 01:34:40;;;;;;;6.87;4.10;;;12.20;60.00;;;;;;2592845;53;21030;-77
2022/05/02 01:37:09;;;;;;;8.73;3.90;;;12.20;59.80;;;;;;2345627;57;21058;-77
2022/05/02 01:39:37;;;;;;;7.75;4.00;;;12.20;59.80;;;;;;2591910;53;21041;-77
2022/05/02 01:42:06;;;;;;;5.68;3.78;;;12.10;59.90;;;;;;2592505;53;21093;-76
2022/05/02 01:44:34;;;;;;;6.50;3.62;;;12.10;59.90;;;;;;2345825;57;21112;-77
2022/05/02 01:47:01;;;;;;;5.05;3.60;;;12.10;60.00;;;;;;2343804;57;21041;-77
2022/05/02 01:49:29;;;;;;;5.82;3.25;;;12.10;60.30;;;;;;2345125;57;21058;-76
2022/05/02 01:51:57;;;;;;;4.80;3.22;;;12.00;60.20;;;;;;2592004;53;21611;-77
2022/05/02 01:54:25;;;;;;;6.05;3.40;;;12.00;60.10;;;;;;2345652;57;21631;-76
2022/05/02 01:56:53;;;;;;;5.00;3.25;;;12.00;60.40;;;;;;2345271;57;21045;-76
2022/05/02 01:59:20;;;;;;;6.93;3.65;;;12.00;60.80;;;;;;2592783;53;21062;-77
2022/05/02 02:01:47;;;;;;;4.15;3.22;;;12.00;60.70;;;;;;2345603;57;21041;-77
2022/05/02 02:07:00;;;;;;;5.85;3.40;;;12.00;60.90;;;;;;2345203;57;21584;-76
2022/05/02 02:09:27;;;;;;;8.00;3.90;;;11.90;61.60;;;;;;2345721;57;21520;-76
2022/05/02 02:11:55;;;;;;;4.87;3.53;;;11.90;60.90;;;;;;2592748;53;21540;-76
2022/05/02 02:14:22;;;;;;;6.97;3.60;;;11.90;60.90;;;;;;2592936;52;21097;-78
2022/05/02 02:16:50;;;;;;;7.85;3.67;;;11.90;61.30;;;;;;2591919;53;21615;-76
2022/05/02 02:19:17;;;;;;;5.07;3.33;;;11.90;61.30;;;;;;2343740;57;21097;-77
2022/05/02 02:21:44;;;;;;;8.45;3.70;;;11.80;61.40;;;;;;2345649;57;21607;-76
2022/05/02 02:24:11;;;;;;;8.60;4.07;;;11.90;61.50;;;;;;2346006;57;21130;-77
2022/05/02 02:26:40;;;;;;;6.55;4.30;;;11.90;61.50;;;;;;2345269;57;21575;-76
2022/05/02 02:29:07;;;;;;;5.78;3.60;;;11.80;61.60;;;;;;2592546;53;21049;-77
2022/05/02 02:31:34;;;;;;;5.85;3.85;;;11.80;61.80;;;;;;2345838;57;21037;-76
2022/05/02 02:34:02;;;;;;;7.35;4.07;;;11.80;61.60;;;;;;2592219;53;21556;-77
2022/05/02 02:36:29;;;;;;;5.85;3.33;;;11.80;61.70;;;;;;2590336;53;21025;-76
2022/05/02 02:38:56;;;;;;;6.25;4.25;;;11.80;62.00;;;;;;2592445;53;21109;-76
2022/05/02 02:41:24;;;;;;;7.82;4.03;;;11.70;61.90;;;;;;2345729;57;21121;-76
2022/05/02 02:43:51;;;;;;;7.65;4.12;;;11.80;61.90;;;;;;2592928;53;21090;-76
2022/05/02 02:46:18;;;;;;;7.82;4.22;;;11.70;62.20;;;;;;2345303;57;21216;-76
2022/05/02 02:48:45;;;;;;;6.53;3.87;;;11.80;62.30;;;;;;2345645;57;21030;-76
2022/05/02 02:51:13;;;;;;;6.03;3.83;;;11.70;62.30;;;;;;2343394;57;21034;-76
2022/05/02 02:53:40;;;;;;;5.47;3.70;;;11.70;62.20;;;;;;2345089;57;21105;-77
2022/05/02 02:56:07;;;;;;;6.62;4.07;;;11.70;62.40;;;;;;2591063;53;21041;-76
2022/05/02 02:58:34;;;;;;;6.45;3.90;;;11.60;62.50;;;;;;2345517;57;21046;-76
2022/05/02 03:01:02;;;;;;;7.35;4.80;;;11.60;62.80;;;;;;2592568;53;21109;-76
2022/05/02 03:03:29;;;;;;;5.60;3.78;;;11.60;62.70;;;;;;2345613;57;21097;-76
2022/05/02 03:06:03;;;;;;;7.05;4.25;;;11.60;62.70;;;;;;2344884;57;21092;-77
2022/05/02 03:08:30;;;;;;;;;;;11.50;62.70;;;;;;2348940;57;21084;-77
2022/05/02 03:10:58;;;;;;;7.70;4.62;;;11.60;62.70;;;;;;2345757;57;20074;-77
2022/05/02 03:13:25;;;;;;;7.47;4.25;;;11.40;62.30;;;;;;2592003;53;22092;-77
2022/05/02 03:15:53;;;;;;;10.25;5.00;;;11.30;62.40;;;;;;2345041;57;21181;-77
2022/05/02 03:18:20;;;;;;;12.18;4.12;;;11.30;62.50;;;;;;2592251;53;21058;-76
2022/05/02 03:20:48;;;;;;;5.82;4.20;;;11.30;62.70;;;;;;2345192;57;21030;-77
2022/05/02 03:23:15;;;;;;;9.02;4.25;;;11.20;62.90;;;;;;2592139;53;21049;-77
2022/05/02 03:25:43;;;;;;;7.15;4.05;;;11.10;63.00;;;;;;2344924;57;21639;-76
2022/05/02 03:28:10;;;;;;;6.35;4.47;;;11.10;63.20;;;;;;2344912;57;21040;-77
2022/05/02 03:30:38;;;;;;;6.93;4.57;;;11.10;63.10;;;;;;2592646;53;21022;-76
2022/05/02 03:33:06;;;;;;;8.40;4.95;;;11.00;63.10;;;;;;2345548;57;21129;-77
2022/05/02 03:35:33;;;;;;;12.43;6.05;;;11.00;63.20;;;;;;2345136;57;21058;-76
2022/05/02 03:38:01;;;;;;;12.15;5.78;;;11.00;63.30;;;;;;2592474;53;21041;-76
2022/05/02 03:40:29;;;;;;;13.13;6.22;;;10.90;63.60;;;;;;2345028;57;21029;-77
2022/05/02 03:42:57;;;;;;;12.80;5.72;;;10.90;63.90;;;;;;2592399;53;21504;-77
2022/05/02 03:45:24;;;;;;;8.48;4.70;;;10.90;63.90;;;;;;2591362;53;21128;-74
2022/05/02 03:47:51;;;;;;;7.40;4.10;;;10.90;64.10;;;;;;2345361;57;21039;-76
2022/05/02 03:50:18;;;;;;;13.40;5.15;;;10.80;64.50;;;;;;2344596;57;21049;-75
2022/05/02 03:52:46;;;;;;;19.52;7.80;;;10.80;63.70;;;;;;2345433;57;21739;-76
2022/05/02 03:55:13;;;;;;;14.32;6.28;;;10.80;63.80;;;;;;2345703;57;21066;-76
2022/05/02 03:57:40;;;;;;;14.52;5.55;;;10.80;63.80;;;;;;2345194;57;21592;-75
2022/05/02 04:00:10;;;;;;;12.70;5.40;;;10.80;63.90;;;;;;2592284;53;21115;-75
2022/05/02 04:02:38;;;;;;;8.35;4.70;;;10.80;64.10;;;;;;2345787;57;21030;-76
2022/05/02 04:05:06;;;;;;;7.30;4.30;;;10.70;64.20;;;;;;2345511;57;21104;-75
2022/05/02 04:07:34;;;;;;;19.55;7.75;;;10.60;64.10;;;;;;2344286;57;21041;-76
2022/05/02 04:10:01;;;;;;;14.43;6.37;;;10.50;64.30;;;;;;2592819;52;21138;-76
2022/05/02 04:12:35;;;;;;;13.90;5.78;;;10.50;64.50;;;;;;2345803;57;21026;-76
2022/05/02 04:15:03;;;;;;;14.95;5.60;;;10.50;64.90;;;;;;2345459;57;21097;-76
2022/05/02 04:17:31;;;;;;;13.30;5.32;;;10.50;65.10;;;;;;2591803;52;21039;-76
2022/05/02 04:19:58;;;;;;;11.35;5.22;;;10.60;65.30;;;;;;2592903;53;21045;-75
2022/05/02 04:22:25;;;;;;;8.02;4.68;;;10.50;65.40;;;;;;2344918;57;21512;-76
2022/05/02 04:24:53;;;;;;;7.03;4.30;;;10.60;65.70;;;;;;2345318;57;21053;-76
2022/05/02 04:27:20;;;;;;;10.00;5.43;;;10.60;65.50;;;;;;2345471;57;21030;-75
2022/05/02 04:29:47;;;;;;;9.13;5.28;;;10.60;65.40;;;;;;2345518;57;21049;-76
2022/05/02 04:32:15;;;;;;;10.27;5.40;;;10.70;65.50;;;;;;2345898;57;21051;-75
2022/05/02 04:34:42;;;;;;;8.13;5.32;;;10.70;65.80;;;;;;2344976;57;21113;-75
2022/05/02 04:37:11;;;;;;;9.52;4.90;;;10.70;65.90;;;;;;2557683;52;68566;-85
2022/05/02 04:42:14;;;;;;;8.85;4.87;;;10.70;66.10;;;;;;2356458;57;20064;-77
2022/05/02 04:44:41;;;;;;;9.50;5.22;;;10.80;66.00;;;;;;2348066;57;21057;-77
2022/05/02 04:47:09;;;;;;;9.73;5.93;;;10.90;66.10;;;;;;2362390;56;21540;-77
2022/05/02 04:49:36;;;;;;;13.15;4.70;;;10.90;66.60;;;;;;2629032;52;21546;-77
2022/05/02 04:52:05;;;;;;;9.55;5.28;;;10.90;65.90;;;;;;2375279;56;21049;-75
2022/05/02 04:54:32;;;;;;;9.43;5.80;;;11.00;66.20;;;;;;2375363;56;21038;-77
2022/05/02 04:57:00;;;;;;;13.52;4.85;;;11.00;66.20;;;;;;2374872;56;21055;-77
2022/05/02 04:59:27;;;;;;;10.90;5.82;;;11.00;66.20;;;;;;2375781;56;21031;-77
2022/05/02 05:01:56;;;;;;;10.68;5.75;;;11.00;66.20;;;;;;2629374;52;21130;-76
2022/05/02 05:04:23;;;;;;;6.70;4.65;;;11.00;66.20;;;;;;2375736;56;21115;-77
2022/05/02 05:06:51;;;;;;;9.80;5.37;;;11.00;66.30;;;;;;2374846;56;21055;-76
2022/05/02 05:09:18;;;;;;;11.48;5.25;;;11.00;66.30;;;;;;2627870;52;21059;-77
2022/05/02 05:17:35;;;;;;;6.85;4.57;;;11.10;66.70;;;;;;2362920;56;21023;-77
2022/05/02 05:20:14;;;;;;;12.00;5.45;;;11.20;66.70;;;;;;2374353;56;21031;-78
2022/05/02 05:23:02;;;;;;;7.20;4.68;;;11.10;66.80;;;;;;2627060;52;21070;-77
2022/05/02 05:25:57;;;;;;;7.43;4.65;;;11.20;66.70;;;;;;2373565;56;21047;-76
2022/05/02 05:28:43;;;;;;;7.75;4.65;;;11.20;66.70;;;;;;2357592;56;21035;-76
2022/05/02 05:31:26;;;;;;;6.95;4.40;;;11.20;66.70;;;;;;2627396;52;21136;-75
2022/05/02 05:34:04;;;;;;;8.35;4.80;;;11.20;66.70;;;;;;2374399;56;21066;-76
2022/05/02 05:36:41;;;;;;;8.70;4.03;;;11.30;66.60;;;;;;2374357;56;21604;-77
2022/05/02 05:39:17;;;;;;;5.80;4.32;;;11.30;66.40;;;;;;2374349;56;21131;-76
2022/05/02 05:41:54;;;;;;;10.52;4.78;;;11.30;66.70;;;;;;2374902;56;21414;-77
2022/05/02 05:44:29;;;;;;;8.10;4.50;;;11.40;66.90;;;;;;2374916;56;21093;-77
2022/05/02 05:47:16;;;;;;;9.00;4.62;;;11.40;67.20;;;;;;2374837;56;21086;-77
2022/05/02 05:49:59;;;;;;;6.53;4.43;;;11.50;67.50;;;;;;2375416;56;21113;-77
2022/05/02 05:52:40;;;;;;;7.22;4.15;;;11.50;67.80;;;;;;2628637;52;21119;-77
2022/05/02 05:55:15;;;;;;;5.03;4.00;;;11.60;67.90;;;;;;2372641;56;21122;-77
2022/05/02 05:57:48;;;;;;;8.38;3.85;;;11.60;67.90;;;;;;2373627;56;21027;-77
2022/05/02 06:00:16;;;;;;;4.93;4.05;;;11.60;67.80;;;;;;2629233;52;21086;-76
2022/05/02 06:03:02;;;;;;;7.97;4.47;;;11.70;67.70;;;;;;2629309;52;21035;-76
2022/05/02 06:05:29;;;;;;;4.90;3.97;;;11.70;67.70;;;;;;2374506;56;21090;-76
2022/05/02 06:10:34;;;;;;;5.70;4.57;;;11.70;67.50;;;;;;2336448;57;28406;-78
2022/05/02 06:13:03;;;;;;;6.90;4.70;;;11.50;69.70;;;;;;2348036;57;21022;-77
2022/05/02 06:18:29;;;;;;;7.50;4.45;;;11.90;68.30;;;;;;2319672;58;21039;-76
2022/05/02 06:20:59;;;;;;;7.10;4.07;;;12.00;67.70;;;;;;2320028;58;21618;-75
2022/05/02 06:23:30;;;;;;;7.57;3.90;;;12.10;67.50;;;;;;2561014;54;21119;-77
2022/05/02 06:25:57;;;;;;;6.45;4.60;;;12.10;67.20;;;;;;2560675;53;22221;-77
2022/05/02 06:28:39;;;;;;;5.62;4.40;;;12.20;67.10;;;;;;2320238;58;21063;-76
2022/05/02 06:31:09;;;;;;;7.57;4.10;;;12.20;67.20;;;;;;2319671;58;21099;-76
2022/05/02 06:33:38;;;;;;;5.95;4.57;;;12.20;67.00;;;;;;2320669;58;21052;-76
2022/05/02 06:36:37;;;;;;;6.87;4.10;;;12.30;67.00;;;;;;2319725;58;21173;-77
2022/05/02 06:39:10;;;;;;;4.62;3.50;;;12.30;67.00;;;;;;2298870;58;21063;-77
2022/05/02 06:42:09;;;;;;;6.87;4.00;;;12.40;66.40;;;;;;2319452;58;21052;-77
2022/05/02 06:45:02;;;;;;;6.05;3.10;;;12.40;65.20;;;;;;2561709;53;21127;-76
2022/05/02 06:47:43;;;;;;;6.40;2.53;;;12.40;65.10;;;;;;2319734;58;21052;-77
2022/05/02 06:50:16;;;;;;;3.80;2.40;;;12.50;62.90;;;;;;2319589;58;21416;-75
2022/05/02 06:52:53;;;;;;;3.03;2.00;;;12.60;61.90;;;;;;2320095;58;21135;-75
2022/05/02 06:55:30;;;;;;;2.28;1.70;;;12.50;60.90;;;;;;2319219;58;21111;-77
2022/05/02 06:58:08;;;;;;;3.28;1.77;;;12.60;59.20;;;;;;2320166;58;21078;-77
2022/05/02 07:00:44;;;;;;;3.00;1.60;;;12.60;58.10;;;;;;2319838;58;21076;-78
2022/05/02 07:03:30;;;;;;;1.75;1.62;;;12.60;56.00;;;;;;2319967;58;21085;-77
2022/05/02 07:06:09;;;;;;;3.08;2.03;;;12.60;55.90;;;;;;2318855;58;21055;-77
2022/05/02 07:08:48;;;;;;;3.10;2.05;;;12.60;55.80;;;;;;2320593;58;21142;-77
2022/05/02 07:11:20;;;;;;;3.17;2.00;;;12.60;56.00;;;;;;2320754;58;21066;-76
2022/05/02 07:14:01;;;;;;;2.28;1.90;;;12.70;56.30;;;;;;2562108;53;21092;-77
2022/05/02 07:16:32;;;;;;;4.18;1.73;;;12.80;56.30;;;;;;2319644;58;21728;-77
2022/05/02 07:19:19;;;;;;;1.90;1.35;;;12.80;55.90;;;;;;2320736;58;21060;-77
2022/05/02 07:21:54;;;;;;;2.35;1.45;;;12.90;55.60;;;;;;2559694;53;21186;-77
2022/05/02 07:24:47;;;;;;;2.47;1.77;;;12.90;55.60;;;;;;2560543;53;21104;-76
2022/05/02 07:27:28;;;;;;;2.95;1.50;;;13.00;54.60;;;;;;2560057;53;21131;-77
2022/05/02 07:29:58;;;;;;;1.87;1.55;;;13.00;54.30;;;;;;2320001;58;21063;-77
2022/05/02 07:32:27;;;;;;;2.75;1.35;;;13.10;54.20;;;;;;2560840;53;21067;-77
2022/05/02 07:34:56;;;;;;;5.05;1.60;;;13.10;54.30;;;;;;2319670;58;21214;-77
2022/05/02 07:37:23;;;;;;;2.20;1.27;;;13.20;53.30;;;;;;2560641;54;21076;-77
2022/05/02 07:39:52;;;;;;;2.37;1.42;;;13.20;53.50;;;;;;2560745;53;21120;-77
2022/05/02 07:42:20;;;;;;;2.65;1.17;;;13.30;53.40;;;;;;2320038;58;21119;-77
2022/05/02 07:44:51;;;;;;;1.83;1.35;;;13.30;52.60;;;;;;2560988;54;21041;-77
2022/05/02 07:47:19;;;;;;;2.65;1.30;;;13.40;52.60;;;;;;2318837;58;21079;-75
2022/05/02 07:49:48;;;;;;;1.65;1.55;;;13.40;53.20;;;;;;2560844;54;21132;-75
2022/05/02 07:52:24;;;;;;;4.50;1.65;;;13.40;52.30;;;;;;2560890;53;21067;-77
2022/05/02 07:54:55;;;;;;;1.95;1.30;;;13.50;52.10;;;;;;2320032;58;21116;-77
2022/05/02 07:57:24;;;;;;;2.37;1.42;;;13.50;52.10;;;;;;2560649;54;21155;-77
2022/05/02 07:59:52;;;;;;;2.90;1.70;;;13.60;51.50;;;;;;2319720;58;21607;-76
2022/05/02 08:02:22;;;;;;;4.82;2.45;;;13.60;51.50;;;;;;2319188;58;21612;-76
2022/05/02 08:04:49;;;;;;;2.67;1.50;;;13.60;51.10;;;;;;2319773;58;21060;-77
2022/05/02 08:07:22;;;;;;;1.85;1.45;;;13.70;50.20;;;;;;2319351;58;21103;-77
2022/05/02 08:10:43;;;;;;;1.90;1.27;;;13.70;50.50;;;;;;2319970;58;21551;-76
2022/05/02 08:13:25;;;;;;;3.92;1.62;;;13.80;50.80;;;;;;2319831;58;21107;-77
2022/05/02 08:16:02;;;;;;;2.58;1.35;;;13.80;51.00;;;;;;2319579;58;21051;-76
2022/05/02 08:19:03;;;;;;;3.67;1.70;;;13.90;50.40;;;;;;2319319;58;21051;-77
2022/05/02 08:21:37;;;;;;;4.28;1.80;;;14.00;50.90;;;;;;2319501;58;21055;-76
2022/05/02 08:27:25;;;;;;;2.20;1.85;;;14.10;49.70;;;;;;2319076;58;21067;-76
2022/05/02 08:30:17;;;;;;;6.37;3.03;;;14.10;49.60;;;;;;2319709;58;21103;-76
2022/05/02 08:32:52;;;;;;;4.20;2.33;;;14.10;48.10;;;;;;2319409;58;21145;-76
2022/05/02 08:35:29;;;;;;;3.83;2.17;;;14.20;49.20;;;;;;2319435;58;21063;-74
2022/05/02 08:38:12;;;;;;;7.20;3.28;;;14.20;49.80;;;;;;2318533;58;21072;-76
2022/05/02 08:41:18;;;;;;;5.30;2.45;;;14.20;49.80;;;;;;2319879;58;21072;-77
2022/05/02 08:44:35;;;;;;;3.65;2.65;;;14.30;49.20;;;;;;2560786;53;21028;-77
2022/05/02 08:47:33;;;;;;;2.65;2.42;;;14.30;49.30;;;;;;2319533;58;21318;-76
2022/05/02 08:50:21;;;;;;;3.92;3.00;;;14.40;49.10;;;;;;2319299;58;21059;-77
2022/05/02 08:53:34;;;;;;;5.30;3.33;;;14.40;48.60;;;;;;2561665;53;21058;-77
2022/05/02 08:56:34;;;;;;;4.53;2.80;;;14.40;48.80;;;;;;2318335;58;21056;-77
2022/05/02 08:59:33;;;;;;;5.80;2.85;;;14.50;48.90;;;;;;2319960;58;21124;-78
2022/05/02 09:02:43;;;;;;;5.50;3.40;;;14.60;49.00;;;;;;2319464;58;21095;-78
2022/05/02 09:06:01;;;;;;;4.55;3.12;;;14.70;49.00;;;;;;2556130;53;21542;-75
2022/05/02 09:09:10;;;;;;;5.87;3.28;;;14.70;48.60;;;;;;2319137;58;21056;-75
2022/05/02 09:12:23;;;;;;;7.22;3.90;;;14.80;48.50;;;;;;2318174;58;21361;-76
2022/05/02 09:15:11;;;;;;;7.15;4.12;;;14.90;47.80;;;;;;2319364;58;21111;-74
2022/05/02 09:18:04;;;;;;;5.78;3.08;;;14.90;47.60;;;;;;2560710;54;21044;-78
2022/05/02 09:20:56;;;;;;;7.28;3.65;;;15.00;48.10;;;;;;2319568;58;21064;-75
2022/05/02 09:24:11;;;;;;;6.32;4.15;;;15.20;48.30;;;;;;2560993;54;21119;-75
2022/05/02 09:27:07;;;;;;;4.78;3.65;;;15.20;47.50;;;;;;2319116;58;21143;-75
2022/05/02 09:33:15;;;;;;;9.57;3.62;;;15.30;47.70;;;;;;2355879;57;22081;-75
2022/05/02 09:35:51;;;;;;;4.45;3.17;;;15.40;46.30;;;;;;2347528;57;21112;-74
2022/05/02 09:38:25;;;;;;;4.87;3.35;;;15.40;45.80;;;;;;2320680;58;21047;-74
2022/05/02 09:40:57;;;;;;;;;;;15.50;45.80;;;;;;2324336;58;21182;-74
2022/05/02 09:49:37;;;;;;;5.18;3.65;;;15.60;46.20;;;;;;2320473;58;21067;-74
2022/05/02 09:52:11;;;;;;;7.95;3.67;;;15.70;46.50;;;;;;2320638;58;21064;-75
2022/05/02 09:58:03;;;;;;;5.82;3.83;;;15.90;45.10;;;;;;2282818;58;21709;-75
2022/05/02 10:03:36;;;;;;;8.35;5.20;;;15.90;44.10;;;;;;2319950;58;21088;-76
2022/05/02 10:06:05;;;;;;;8.40;5.75;;;15.90;43.00;;;;;;2319507;58;21067;-75
2022/05/02 10:08:47;;;;;;;7.87;5.68;;;16.00;43.70;;;;;;2320681;58;21143;-77
2022/05/02 10:11:45;;;;;;;9.45;5.30;;;16.00;43.30;;;;;;2320556;58;21123;-75
2022/05/02 10:14:34;;;;;;;11.80;6.10;;;16.10;42.60;;;;;;2314133;58;21048;-75
2022/05/02 10:17:07;;;;;;;8.63;5.82;;;16.20;43.10;;;;;;2320150;58;21130;-76
2022/05/02 10:20:09;;;;;;;13.18;6.37;;;16.20;43.10;;;;;;2562521;54;21096;-75
2022/05/02 10:22:47;;;;;;;10.38;6.47;;;16.30;42.90;;;;;;2319920;58;21116;-75
2022/05/02 10:25:21;;;;;;;12.70;7.60;;;16.30;42.60;;;;;;2562137;54;21517;-76
2022/05/02 10:28:07;;;;;;;9.93;6.65;;;16.30;41.70;;;;;;2319970;58;21068;-76
2022/05/02 10:30:46;;;;;;;9.75;6.35;;;16.30;42.50;;;;;;2562200;54;21055;-77
2022/05/02 10:33:20;;;;;;;9.05;5.03;;;16.40;42.60;;;;;;2320697;58;21127;-77
2022/05/02 10:35:52;;;;;;;14.02;7.00;;;16.50;43.10;;;;;;2562233;54;21175;-76
2022/05/02 10:38:27;;;;;;;9.18;5.75;;;16.60;43.30;;;;;;2320339;58;21132;-76
2022/05/02 10:41:02;;;;;;;10.10;6.10;;;16.70;43.80;;;;;;2320936;58;21040;-75
2022/05/02 10:43:35;;;;;;;10.35;5.93;;;16.70;42.00;;;;;;2319405;58;21192;-76
2022/05/02 10:46:02;;;;;;;9.27;6.03;;;16.80;42.70;;;;;;2560554;53;21064;-75
2022/05/02 10:48:41;;;;;;;10.63;5.95;;;16.90;42.80;;;;;;2560945;53;21104;-77
2022/05/02 10:51:15;;;;;;;8.63;5.93;;;17.10;42.80;;;;;;2319489;58;21056;-75
2022/05/02 10:54:08;;;;;;;11.38;6.95;;;17.20;42.20;;;;;;2560626;53;21104;-75
2022/05/02 10:56:41;;;;;;;11.53;6.80;;;17.30;40.90;;;;;;2319485;58;21131;-75
2022/05/02 10:59:12;;;;;;;11.23;7.25;;;17.30;42.00;;;;;;2319885;58;21719;-75
2022/05/02 11:02:37;;;;;;;8.13;6.03;;;17.40;41.20;;;;;;2319564;58;21132;-74
2022/05/02 11:20:50;;;;;;;11.90;7.53;;;17.40;42.00;;;;;;2336247;57;27775;-76
2022/05/02 11:23:47;;;;;;;7.97;5.93;;;17.90;40.00;;;;;;2347605;57;21289;-76
2022/05/02 11:26:27;;;;;;;15.00;6.15;;;17.90;41.00;;;;;;2599697;52;21640;-74
2022/05/02 11:29:08;;;;;;;7.80;5.80;;;18.00;40.80;;;;;;2374821;56;21134;-75
2022/05/02 11:31:40;;;;;;;9.48;6.15;;;18.10;40.70;;;;;;2375090;56;21039;-74
2022/05/02 11:34:19;;;;;;;11.12;5.80;;;18.20;39.80;;;;;;2375209;56;21031;-75
2022/05/02 11:36:53;;;;;;;7.37;5.78;;;18.30;40.50;;;;;;2374878;56;21059;-75
2022/05/02 11:39:25;;;;;;;6.68;5.40;;;18.40;40.00;;;;;;2628684;52;21035;-75
2022/05/02 11:42:01;;;;;;;7.78;6.03;;;18.50;40.00;;;;;;2375298;56;21099;-75
2022/05/02 11:44:37;;;;;;;11.27;5.95;;;18.70;40.00;;;;;;2374614;56;21046;-75
2022/05/02 11:47:13;;;;;;;8.10;5.45;;;18.80;39.10;;;;;;2374913;56;21708;-75
2022/05/02 11:49:58;;;;;;;10.77;5.03;;;18.80;38.50;;;;;;2375448;56;21043;-75
2022/05/02 11:52:32;;;;;;;13.00;6.00;;;18.90;38.70;;;;;;2375125;56;21113;-74
2022/05/02 11:55:00;;;;;;;8.95;5.72;;;18.80;38.10;;;;;;2375126;56;21042;-77
2022/05/02 11:57:37;;;;;;;8.30;5.05;;;18.70;37.70;;;;;;2628316;52;21054;-78
2022/05/02 12:00:11;;;;;;;7.22;5.65;;;18.60;37.70;;;;;;2374438;56;21530;-76
2022/05/02 12:02:53;;;;;;;7.32;4.78;;;18.50;37.40;;;;;;2628356;52;21098;-76
2022/05/02 12:05:31;;;;;;;7.95;5.78;;;18.60;38.60;;;;;;2374883;56;21107;-76
2022/05/02 12:08:00;;;;;;;11.90;4.62;;;18.60;37.60;;;;;;2375478;56;21050;-76
2022/05/02 12:10:39;;;;;;;8.75;5.10;;;18.60;38.50;;;;;;2375056;56;21066;-76
2022/05/02 12:13:07;;;;;;;6.90;5.25;;;18.70;38.40;;;;;;2375622;56;21051;-75
2022/05/02 12:15:52;;;;;;;7.25;4.95;;;18.70;38.40;;;;;;2627967;52;21059;-78
2022/05/02 12:20:58;;;;;;;10.88;6.50;;;18.80;39.10;;;;;;2605647;52;22552;-76
2022/05/02 12:23:33;;;;;;;8.38;5.37;;;18.90;37.70;;;;;;2347865;57;21046;-75
2022/05/02 12:26:03;;;;;;;8.48;5.28;;;18.90;37.90;;;;;;2596925;52;21065;-74
2022/05/02 12:28:41;;;;;;;12.23;5.32;;;18.90;39.10;;;;;;2375393;56;21031;-75
2022/05/02 12:31:15;;;;;;;9.20;5.15;;;18.90;38.50;;;;;;2375469;56;21031;-75
2022/05/02 12:33:43;;;;;;;;;;;18.90;37.90;;;;;;2377953;56;21558;-75
2022/05/02 12:36:16;;;;;;;7.35;5.75;;;19.00;39.40;;;;;;2627541;52;20387;-74
2022/05/02 12:38:53;;;;;;;8.18;5.35;;;19.20;38.10;;;;;;2375245;56;21034;-75
2022/05/02 12:41:26;;;;;;;7.37;5.03;;;19.30;37.60;;;;;;2375162;56;21058;-76
2022/05/02 12:43:55;;;;;;;6.55;4.62;;;19.30;37.80;;;;;;2629420;52;21055;-75
2022/05/02 12:46:32;;;;;;;6.75;4.45;;;19.30;37.50;;;;;;2374753;56;21043;-74
2022/05/02 12:49:04;;;;;;;14.00;4.62;;;19.30;37.70;;;;;;2628675;52;21098;-75
2022/05/02 12:51:32;;;;;;;6.60;4.37;;;19.30;39.10;;;;;;2374799;56;21051;-74
2022/05/02 12:54:12;;;;;;;7.40;5.00;;;19.40;39.30;;;;;;2629035;52;21059;-75
2022/05/02 13:02:33;;;;;;;6.97;4.90;;;19.50;36.80;;;;;;2374754;56;21059;-74
2022/05/02 13:05:05;;;;;;;8.52;5.37;;;19.40;37.30;;;;;;2375116;56;21118;-76
2022/05/02 13:07:41;;;;;;;11.10;5.17;;;19.40;37.50;;;;;;2628606;52;21043;-75
2022/05/02 13:12:57;;;;;;;6.82;5.68;;;19.40;37.80;;;;;;2356256;57;22149;-75
2022/05/02 13:15:26;;;;;;;8.77;5.15;;;19.40;37.00;;;;;;2347336;57;21065;-77
2022/05/02 13:17:58;;;;;;;8.18;5.20;;;19.50;37.20;;;;;;2623414;52;21514;-77
2022/05/02 13:20:28;;;;;;;11.27;5.50;;;19.60;37.30;;;;;;2628120;52;21162;-77
2022/05/02 13:23:01;;;;;;;9.57;5.25;;;19.70;37.30;;;;;;2373989;56;21035;-75
2022/05/02 13:25:46;;;;;;;;;;;19.80;38.50;;;;;;2377854;56;21055;-74
2022/05/02 13:28:16;;;;;;;;;;;19.80;38.20;;;;;;2377312;56;20148;-76
2022/05/02 13:30:51;;;;;;;8.52;3.90;;;19.90;40.10;;;;;;2628685;52;20069;-76
2022/05/02 13:33:25;;;;;;;7.30;5.45;;;20.10;39.10;;;;;;2628162;52;21050;-75
2022/05/02 13:36:02;;;;;;;10.88;6.70;;;20.10;36.90;;;;;;2627856;52;21119;-76
2022/05/02 13:38:37;;;;;;;9.05;5.80;;;20.10;36.40;;;;;;2628467;52;21032;-76
2022/05/02 13:41:14;;;;;;;8.50;5.50;;;20.00;36.20;;;;;;2626903;52;21149;-76
2022/05/02 13:43:52;;;;;;;11.75;5.87;;;19.90;36.70;;;;;;2375072;56;21039;-76
2022/05/02 13:46:30;;;;;;;8.55;5.45;;;19.90;36.60;;;;;;2374686;56;21537;-77
2022/05/02 13:49:14;;;;;;;6.45;5.60;;;19.90;36.00;;;;;;2628688;52;21517;-76
2022/05/02 13:51:53;;;;;;;9.20;5.12;;;19.90;36.20;;;;;;2374710;56;21043;-76
2022/05/02 13:54:27;;;;;;;7.07;5.22;;;20.00;37.00;;;;;;2371780;56;21099;-76
2022/05/02 13:57:07;;;;;;;8.27;5.78;;;20.00;37.50;;;;;;2372670;56;21046;-76
2022/05/02 13:59:45;;;;;;;8.13;5.30;;;20.00;37.10;;;;;;2372477;56;21107;-76
2022/05/02 14:04:53;;;;;;;8.27;5.40;;;19.90;36.70;;;;;;2354805;57;22018;-77
2022/05/02 14:07:24;;;;;;;8.90;4.93;;;19.90;37.50;;;;;;2613133;52;21027;-76
2022/05/02 14:09:54;;;;;;;6.03;4.57;;;19.80;37.70;;;;;;2627031;52;21031;-75
2022/05/02 14:12:34;;;;;;;7.68;4.43;;;19.80;37.80;;;;;;2627730;52;21105;-76
2022/05/02 14:15:03;;;;;;;8.48;5.43;;;19.80;38.30;;;;;;2374185;56;21035;-77
2022/05/02 14:17:35;;;;;;;6.12;4.65;;;19.70;37.00;;;;;;2374253;56;21039;-76
2022/05/02 14:20:13;;;;;;;6.05;4.03;;;19.70;37.00;;;;;;2627691;52;21031;-77
2022/05/02 14:22:42;;;;;;;6.32;4.75;;;19.70;37.40;;;;;;2627933;52;21150;-76
2022/05/02 14:25:21;;;;;;;8.65;4.60;;;19.60;37.50;;;;;;2627491;52;21099;-76
2022/05/02 14:27:49;;;;;;;5.03;3.85;;;19.60;37.60;;;;;;2627779;52;21046;-75